createdAt,value
2023-01-21T00:00:59.964Z,8.05
2023-01-21T00:03:26.809Z,7.30
2023-01-21T00:05:53.646Z,8.93
2023-01-21T00:08:20.433Z,7.20
2023-01-21T00:10:47.256Z,6.85
2023-01-21T00:13:14.005Z,7.00
2023-01-21T00:15:40.911Z,7.60
2023-01-21T00:18:08.492Z,7.78
2023-01-21T00:20:35.483Z,8.10
2023-01-21T00:23:02.716Z,7.00
2023-01-21T00:25:29.497Z,8.43
2023-01-21T00:27:56.286Z,7.50
2023-01-21T00:30:22.990Z,7.85
2023-01-21T00:32:49.752Z,7.43
2023-01-21T00:35:16.589Z,8.38
2023-01-21T00:37:43.401Z,8.32
2023-01-21T00:40:10.812Z,8.32
2023-01-21T00:42:37.605Z,8.00
2023-01-21T00:45:04.713Z,7.97
2023-01-21T00:47:31.508Z,7.97
2023-01-21T00:49:58.240Z,8.65
2023-01-21T00:52:25.898Z,8.05
2023-01-21T00:54:52.704Z,8.00
2023-01-21T00:57:19.603Z,8.20
2023-01-21T00:59:46.527Z,9.13
2023-01-21T01:02:13.304Z,8.30
2023-01-21T01:04:40.125Z,7.80
2023-01-21T01:07:06.968Z,7.13
2023-01-21T01:09:33.722Z,8.10
2023-01-21T01:12:00.503Z,8.20
2023-01-21T01:14:27.337Z,7.85
2023-01-21T01:16:54.053Z,7.80
2023-01-21T01:19:21.009Z,7.00
2023-01-21T01:21:47.783Z,6.93
2023-01-21T01:24:14.576Z,8.40
2023-01-21T01:26:42.330Z,7.40
2023-01-21T01:29:11.977Z,7.25
2023-01-21T01:31:39.061Z,7.15
2023-01-21T01:34:06.162Z,7.55
2023-01-21T01:36:32.986Z,6.93
2023-01-21T01:38:59.771Z,7.97
2023-01-21T01:41:29.886Z,7.75
2023-01-21T01:44:04.479Z,7.53
2023-01-21T01:46:33.679Z,6.40
2023-01-21T01:49:13.261Z,7.45
2023-01-21T01:51:51.902Z,7.55
2023-01-21T01:54:24.496Z,7.15
2023-01-21T01:56:56.666Z,8.52
2023-01-21T01:59:24.072Z,7.00
2023-01-21T02:01:51.277Z,7.85
2023-01-21T02:04:23.058Z,7.55
2023-01-21T02:06:52.156Z,7.63
2023-01-21T02:09:19.232Z,7.05
2023-01-21T02:11:46.060Z,6.68
2023-01-21T02:14:12.969Z,8.10
2023-01-21T02:16:42.483Z,6.38
2023-01-21T02:19:57.019Z,8.13
2023-01-21T02:22:37.402Z,6.25
2023-01-21T02:25:25.688Z,7.10
2023-01-21T02:28:15.700Z,7.32
2023-01-21T02:30:42.446Z,7.90
2023-01-21T02:33:20.195Z,6.80
2023-01-21T02:36:02.829Z,6.93
2023-01-21T02:38:39.009Z,6.55
2023-01-21T02:41:42.351Z,8.00
2023-01-21T02:44:25.156Z,7.55
2023-01-21T02:47:08.145Z,7.22
2023-01-21T02:49:45.514Z,6.63
2023-01-21T02:52:20.501Z,6.43
2023-01-21T02:55:15.372Z,7.25
2023-01-21T02:57:54.150Z,7.35
2023-01-21T03:00:26.613Z,6.30
2023-01-21T03:03:15.406Z,7.43
2023-01-21T03:05:54.402Z,6.70
2023-01-21T03:08:23.275Z,6.55
2023-01-21T03:11:16.980Z,7.07
2023-01-21T03:14:12.454Z,6.03
2023-01-21T03:16:59.033Z,6.50
2023-01-21T03:19:46.861Z,6.35
2023-01-21T03:22:18.928Z,6.80
2023-01-21T03:24:50.691Z,7.18
2023-01-21T03:27:21.681Z,6.63
2023-01-21T03:29:52.202Z,6.10
2023-01-21T03:32:23.116Z,6.72
2023-01-21T03:34:54.120Z,6.63
2023-01-21T03:37:36.550Z,6.78
2023-01-21T03:40:08.184Z,5.80
2023-01-21T03:42:35.133Z,6.15
2023-01-21T03:45:02.525Z,6.28
2023-01-21T03:47:34.004Z,6.13
2023-01-21T03:50:16.039Z,7.20
2023-01-21T03:52:44.752Z,6.40
2023-01-21T03:55:13.571Z,6.50
2023-01-21T03:57:40.361Z,6.18
2023-01-21T04:00:08.128Z,6.57
2023-01-21T04:02:34.830Z,7.47
2023-01-21T04:05:01.574Z,7.32
2023-01-21T04:07:28.298Z,6.28
2023-01-21T04:09:55.090Z,6.15
2023-01-21T04:12:21.881Z,5.90
2023-01-21T04:14:48.677Z,5.45
2023-01-21T04:17:15.464Z,5.25
2023-01-21T04:19:42.166Z,6.50
2023-01-21T04:22:08.907Z,5.60
2023-01-21T04:24:35.913Z,5.60
2023-01-21T04:27:02.737Z,4.75
2023-01-21T04:29:29.436Z,5.10
2023-01-21T04:31:56.143Z,6.00
2023-01-21T04:34:22.966Z,5.28
2023-01-21T04:36:49.747Z,5.88
2023-01-21T04:39:16.637Z,5.38
2023-01-21T04:41:43.349Z,5.90
2023-01-21T04:44:10.069Z,5.65
2023-01-21T04:46:36.983Z,5.95
2023-01-21T04:49:03.809Z,5.90
2023-01-21T04:51:30.605Z,6.57
2023-01-21T04:53:57.325Z,5.30
2023-01-21T04:56:24.019Z,5.40
2023-01-21T04:58:50.893Z,6.28
2023-01-21T05:01:17.681Z,6.82
2023-01-21T05:03:44.408Z,6.18
2023-01-21T05:06:11.253Z,6.35
2023-01-21T05:08:38.091Z,5.82
2023-01-21T05:11:07.215Z,6.70
2023-01-21T05:13:33.986Z,5.93
2023-01-21T05:16:05.797Z,5.90
2023-01-21T05:18:32.695Z,4.80
2023-01-21T05:20:59.761Z,6.63
2023-01-21T05:23:26.461Z,5.95
2023-01-21T05:25:53.207Z,4.85
2023-01-21T05:28:20.086Z,6.55
2023-01-21T05:30:47.000Z,6.43
2023-01-21T05:33:14.138Z,5.70
2023-01-21T05:35:40.903Z,6.18
2023-01-21T05:38:07.660Z,5.97
2023-01-21T05:40:34.417Z,6.07
2023-01-21T05:43:01.142Z,6.88
2023-01-21T05:45:27.871Z,5.82
2023-01-21T05:47:54.676Z,6.63
2023-01-21T05:50:21.373Z,6.43
2023-01-21T05:52:48.063Z,5.95
2023-01-21T05:55:14.909Z,6.65
2023-01-21T05:57:41.599Z,7.22
2023-01-21T06:00:09.029Z,6.38
2023-01-21T06:02:35.816Z,6.22
2023-01-21T06:05:02.543Z,6.47
2023-01-21T06:07:29.257Z,8.23
2023-01-21T06:09:56.004Z,8.07
2023-01-21T06:12:24.760Z,8.20
2023-01-21T06:14:51.718Z,9.20
2023-01-21T06:17:18.478Z,8.88
2023-01-21T06:19:45.219Z,9.20
2023-01-21T06:22:18.823Z,9.55
2023-01-21T06:24:45.730Z,8.43
2023-01-21T06:27:12.977Z,9.15
2023-01-21T06:29:39.748Z,9.77
2023-01-21T06:32:06.729Z,9.95
2023-01-21T06:34:33.548Z,10.88
2023-01-21T06:37:00.356Z,11.18
2023-01-21T06:39:27.135Z,11.95
2023-01-21T06:41:55.305Z,11.65
2023-01-21T06:44:22.698Z,12.00
2023-01-21T06:47:00.171Z,13.70
2023-01-21T06:49:27.334Z,13.85
2023-01-21T06:51:54.179Z,15.48
2023-01-21T06:54:20.932Z,16.60
2023-01-21T06:56:47.726Z,17.02
2023-01-21T06:59:14.447Z,16.55
2023-01-21T07:01:41.200Z,19.15
2023-01-21T07:04:07.967Z,17.17
2023-01-21T07:06:34.767Z,16.70
2023-01-21T07:09:01.556Z,18.77
2023-01-21T07:11:28.287Z,17.15
2023-01-21T07:13:55.679Z,16.88
2023-01-21T07:16:22.741Z,17.38
2023-01-21T07:18:49.495Z,17.95
2023-01-21T07:21:16.773Z,18.92
2023-01-21T07:23:45.226Z,17.40
2023-01-21T07:26:18.305Z,18.83
2023-01-21T07:28:46.350Z,17.95
2023-01-21T07:31:13.879Z,18.00
2023-01-21T07:33:41.139Z,16.38
2023-01-21T07:36:08.213Z,18.23
2023-01-21T07:38:35.038Z,18.02
2023-01-21T07:41:02.410Z,18.35
2023-01-21T07:43:29.164Z,17.42
2023-01-21T07:45:58.583Z,18.17
2023-01-21T07:48:26.757Z,18.92
2023-01-21T07:50:57.080Z,16.25
2023-01-21T07:53:24.128Z,16.60
2023-01-21T07:55:50.912Z,20.45
2023-01-21T07:58:17.659Z,26.70
2023-01-21T08:00:44.443Z,19.17
2023-01-21T08:03:11.206Z,19.50
2023-01-21T08:05:37.898Z,14.73
2023-01-21T08:08:04.802Z,15.00
2023-01-21T08:10:31.902Z,14.80
2023-01-21T08:12:58.646Z,16.75
2023-01-21T08:15:27.200Z,16.63
2023-01-21T08:17:53.974Z,14.00
2023-01-21T08:20:20.676Z,16.05
2023-01-21T08:22:47.361Z,14.60
2023-01-21T08:25:14.092Z,13.65
2023-01-21T08:27:40.915Z,13.20
2023-01-21T08:30:08.647Z,13.27
2023-01-21T08:32:35.412Z,14.93
2023-01-21T08:35:02.233Z,13.38
2023-01-21T08:37:35.698Z,14.10
2023-01-21T08:40:03.123Z,14.20
2023-01-21T08:42:33.056Z,14.35
2023-01-21T08:44:59.729Z,12.32
2023-01-21T08:47:26.394Z,14.40
2023-01-21T08:49:53.098Z,11.55
2023-01-21T08:52:21.495Z,14.90
2023-01-21T08:54:50.471Z,13.75
2023-01-21T08:57:17.408Z,14.32
2023-01-21T08:59:45.403Z,13.85
2023-01-21T09:02:12.501Z,12.77
2023-01-21T09:04:39.305Z,11.93
2023-01-21T09:07:06.657Z,13.65
2023-01-21T09:09:33.728Z,12.65
2023-01-21T09:12:00.472Z,14.10
2023-01-21T09:14:27.770Z,13.48
2023-01-21T09:16:55.834Z,13.05
2023-01-21T09:19:23.938Z,13.25
2023-01-21T09:21:52.579Z,13.93
2023-01-21T09:24:19.374Z,12.27
2023-01-21T09:26:46.149Z,12.00
2023-01-21T09:29:12.922Z,15.00
2023-01-21T09:31:39.707Z,12.88
2023-01-21T09:34:06.579Z,13.45
2023-01-21T09:36:34.789Z,14.05
2023-01-21T09:39:01.954Z,13.48
2023-01-21T09:41:46.054Z,15.05
2023-01-21T09:44:29.073Z,13.95
2023-01-21T09:46:58.778Z,15.15
2023-01-21T09:49:30.736Z,13.90
2023-01-21T09:52:21.364Z,11.90
2023-01-21T09:54:48.316Z,12.52
2023-01-21T09:57:29.575Z,11.70
2023-01-21T10:00:15.389Z,12.00
2023-01-21T10:02:53.816Z,11.38
2023-01-21T10:05:39.045Z,12.13
2023-01-21T10:08:33.687Z,11.80
2023-01-21T10:11:09.346Z,11.77
2023-01-21T10:13:54.074Z,10.35
2023-01-21T10:16:53.111Z,10.75
2023-01-21T10:19:28.399Z,10.13
2023-01-21T10:22:00.350Z,11.75
2023-01-21T10:24:33.261Z,10.45
2023-01-21T10:27:00.788Z,10.77
2023-01-21T10:29:28.467Z,11.95
2023-01-21T10:32:07.014Z,12.18
2023-01-21T10:34:39.802Z,9.68
2023-01-21T10:37:20.282Z,9.50
2023-01-21T10:40:11.495Z,12.23
2023-01-21T10:42:38.187Z,11.93
2023-01-21T10:45:16.238Z,10.95
2023-01-21T10:48:12.261Z,10.23
2023-01-21T10:50:38.917Z,10.63
2023-01-21T10:53:33.221Z,11.35
2023-01-21T10:56:05.850Z,11.15
2023-01-21T10:58:38.400Z,11.60
2023-01-21T11:01:09.857Z,10.85
2023-01-21T11:03:44.276Z,10.38
2023-01-21T11:06:15.304Z,12.88
2023-01-21T11:08:45.447Z,11.43
2023-01-21T11:11:14.707Z,11.85
2023-01-21T11:13:41.685Z,11.32
2023-01-21T11:16:09.269Z,13.05
2023-01-21T11:18:40.817Z,11.98
2023-01-21T11:21:19.127Z,12.20
2023-01-21T11:24:00.890Z,11.48
2023-01-21T11:26:37.169Z,14.10
2023-01-21T11:29:10.021Z,12.68
2023-01-21T11:31:37.956Z,13.65
2023-01-21T11:34:14.659Z,12.05
2023-01-21T11:36:59.348Z,13.20
2023-01-21T11:39:34.841Z,11.48
2023-01-21T11:42:16.985Z,12.57
2023-01-21T11:45:01.861Z,11.95
2023-01-21T11:47:46.690Z,10.98
2023-01-21T11:50:17.786Z,11.00
2023-01-21T11:52:44.938Z,10.80
2023-01-21T11:55:20.582Z,11.10
2023-01-21T11:57:53.431Z,11.90
2023-01-21T12:00:23.467Z,10.32
2023-01-21T12:02:58.599Z,11.60
2023-01-21T12:05:43.132Z,12.77
2023-01-21T12:08:29.891Z,12.50
2023-01-21T12:11:02.127Z,13.02
2023-01-21T12:13:49.383Z,9.80
2023-01-21T12:16:28.085Z,14.55
2023-01-21T12:19:16.465Z,9.57
2023-01-21T12:21:53.885Z,10.30
2023-01-21T12:24:39.381Z,9.18
2023-01-21T12:27:48.542Z,9.45
2023-01-21T12:30:21.145Z,9.70
2023-01-21T12:32:56.816Z,10.48
2023-01-21T12:35:54.451Z,9.00
2023-01-21T12:38:47.453Z,10.35
2023-01-21T12:41:22.320Z,10.75
2023-01-21T12:44:06.159Z,9.95
2023-01-21T12:46:40.730Z,10.38
2023-01-21T12:49:23.581Z,11.43
2023-01-21T12:51:56.076Z,9.32
2023-01-21T12:54:47.723Z,10.30
2023-01-21T12:57:40.869Z,10.75
2023-01-21T13:00:31.032Z,8.15
2023-01-21T13:03:23.436Z,8.15
2023-01-21T13:06:00.626Z,9.23
2023-01-21T13:08:30.358Z,10.07
2023-01-21T13:11:55.538Z,8.88
2023-01-21T13:14:31.180Z,9.65
2023-01-21T13:17:22.002Z,9.35
2023-01-21T13:19:49.176Z,9.77
2023-01-21T13:22:18.641Z,9.77
2023-01-21T13:25:06.899Z,9.30
2023-01-21T13:27:44.355Z,9.35
2023-01-21T13:30:49.132Z,9.10
2023-01-21T13:33:34.275Z,10.00
2023-01-21T13:36:09.269Z,9.00
2023-01-21T13:39:00.166Z,9.30
2023-01-21T13:41:55.848Z,10.20
2023-01-21T13:44:49.729Z,9.15
2023-01-21T13:47:33.277Z,9.93
2023-01-21T13:50:24.491Z,9.90
2023-01-21T13:53:09.109Z,8.38
2023-01-21T13:55:55.509Z,8.80
2023-01-21T13:58:42.456Z,9.10
2023-01-21T14:01:26.532Z,9.65
2023-01-21T14:04:02.020Z,9.13
2023-01-21T14:06:40.437Z,10.52
2023-01-21T14:09:14.536Z,9.45
2023-01-21T14:12:32.374Z,8.45
2023-01-21T14:15:08.101Z,8.23
2023-01-21T14:17:46.769Z,8.23
2023-01-21T14:20:13.500Z,10.05
2023-01-21T14:23:01.690Z,10.73
2023-01-21T14:25:40.304Z,9.85
2023-01-21T14:28:18.628Z,8.82
2023-01-21T14:30:55.381Z,6.95
2023-01-21T14:33:27.849Z,8.43
2023-01-21T14:36:05.324Z,7.63
2023-01-21T14:39:07.571Z,7.07
2023-01-21T14:41:54.300Z,7.10
2023-01-21T14:44:45.149Z,8.93
2023-01-21T14:47:23.196Z,7.80
2023-01-21T14:49:53.070Z,7.72
2023-01-21T14:52:27.156Z,6.70
2023-01-21T14:54:53.969Z,7.18
2023-01-21T14:57:35.657Z,6.32
2023-01-21T15:00:34.214Z,7.90
2023-01-21T15:03:18.284Z,5.82
2023-01-21T15:05:50.661Z,6.80
2023-01-21T15:08:32.631Z,5.90
2023-01-21T15:11:06.594Z,7.38
2023-01-21T15:13:33.342Z,6.47
2023-01-21T15:16:33.066Z,7.15
2023-01-21T15:19:08.729Z,6.45
2023-01-21T15:21:41.359Z,6.45
2023-01-21T15:24:25.947Z,6.55
2023-01-21T15:27:17.762Z,7.07
2023-01-21T15:29:55.219Z,5.70
2023-01-21T15:32:22.974Z,6.25
2023-01-21T15:34:55.174Z,6.30
2023-01-21T15:37:24.120Z,6.68
2023-01-21T15:39:52.385Z,6.40
2023-01-21T15:42:43.497Z,7.18
2023-01-21T15:45:20.423Z,6.78
2023-01-21T15:48:16.390Z,6.05
2023-01-21T15:50:58.644Z,7.63
2023-01-21T15:53:50.522Z,7.47
2023-01-21T15:56:26.262Z,6.13
2023-01-21T15:59:03.584Z,7.28
2023-01-21T16:01:37.167Z,6.75
2023-01-21T16:04:35.369Z,7.40
2023-01-21T16:07:23.246Z,7.35
2023-01-21T16:10:03.747Z,7.47
2023-01-21T16:13:05.692Z,6.97
2023-01-21T16:15:32.463Z,8.32
2023-01-21T16:18:21.237Z,7.43
2023-01-21T16:20:53.320Z,7.55
2023-01-21T16:23:22.967Z,7.07
2023-01-21T16:25:52.330Z,7.78
2023-01-21T16:28:20.702Z,7.97
2023-01-21T16:30:56.679Z,7.43
2023-01-21T16:33:23.989Z,7.70
2023-01-21T16:35:56.212Z,7.45
2023-01-21T16:38:26.677Z,7.90
2023-01-21T16:41:08.680Z,8.30
2023-01-21T16:43:47.050Z,7.55
2023-01-21T16:46:37.597Z,9.80
2023-01-21T16:49:12.411Z,7.95
2023-01-21T16:51:43.845Z,8.82
2023-01-21T16:54:21.335Z,8.20
2023-01-21T16:57:22.806Z,8.27
2023-01-21T16:59:49.685Z,8.88
2023-01-21T17:02:27.993Z,8.60
2023-01-21T17:04:57.393Z,8.73
2023-01-21T17:07:34.761Z,8.32
2023-01-21T17:10:07.868Z,7.70
2023-01-21T17:12:36.454Z,8.82
2023-01-21T17:15:38.492Z,7.22
2023-01-21T17:18:17.727Z,8.75
2023-01-21T17:20:52.621Z,8.02
2023-01-21T17:23:24.422Z,9.10
2023-01-21T17:26:17.118Z,7.53
2023-01-21T17:28:59.876Z,7.45
2023-01-21T17:31:31.290Z,7.70
2023-01-21T17:34:04.345Z,10.00
2023-01-21T17:36:34.196Z,7.40
2023-01-21T17:39:01.623Z,9.23
2023-01-21T17:41:34.560Z,7.97
2023-01-21T17:44:14.806Z,7.60
2023-01-21T17:46:46.279Z,8.02
2023-01-21T17:49:21.002Z,9.05
2023-01-21T17:51:48.494Z,8.82
2023-01-21T17:54:24.015Z,8.82
2023-01-21T17:56:56.578Z,8.55
2023-01-21T17:59:34.073Z,7.75
2023-01-21T18:02:02.764Z,8.45
2023-01-21T18:04:29.818Z,11.45
2023-01-21T18:06:57.632Z,10.50
2023-01-21T18:09:25.352Z,8.20
2023-01-21T18:11:54.554Z,9.40
2023-01-21T18:14:23.958Z,11.05
2023-01-21T18:16:53.463Z,8.45
2023-01-21T18:19:35.861Z,10.10
2023-01-21T18:22:04.615Z,10.55
2023-01-21T18:24:31.911Z,15.95
2023-01-21T18:27:00.589Z,10.90
2023-01-21T18:29:30.985Z,10.68
2023-01-21T18:31:58.610Z,11.45
2023-01-21T18:34:25.846Z,15.25
2023-01-21T18:36:52.905Z,11.43
2023-01-21T18:39:20.407Z,10.57
2023-01-21T18:41:47.706Z,11.55
2023-01-21T18:44:16.185Z,11.00
2023-01-21T18:46:43.488Z,7.95
2023-01-21T18:49:16.688Z,9.88
2023-01-21T18:51:44.046Z,10.18
2023-01-21T18:54:13.331Z,12.20
2023-01-21T18:56:42.212Z,11.52
2023-01-21T18:59:17.358Z,9.70
2023-01-21T19:01:44.785Z,9.85
2023-01-21T19:04:15.864Z,10.48
2023-01-21T19:06:42.908Z,9.60
2023-01-21T19:09:24.186Z,10.10
2023-01-21T19:11:51.813Z,11.05
2023-01-21T19:14:18.692Z,10.13
2023-01-21T19:16:46.493Z,8.88
2023-01-21T19:19:15.981Z,9.48
2023-01-21T19:21:42.958Z,10.65
2023-01-21T19:24:12.075Z,9.30
2023-01-21T19:26:39.155Z,10.48
2023-01-21T19:29:13.246Z,10.15
2023-01-21T19:31:40.139Z,10.23
2023-01-21T19:34:08.094Z,10.25
2023-01-21T19:36:34.955Z,9.50
2023-01-21T19:39:01.837Z,9.85
2023-01-21T19:41:28.549Z,10.98
2023-01-21T19:43:55.291Z,10.20
2023-01-21T19:46:23.850Z,10.07
2023-01-21T19:48:53.476Z,9.90
2023-01-21T19:51:20.432Z,9.05
2023-01-21T19:53:47.290Z,10.15
2023-01-21T19:56:23.072Z,11.52
2023-01-21T19:58:50.701Z,9.40
2023-01-21T20:01:17.482Z,10.60
2023-01-21T20:03:58.752Z,9.30
2023-01-21T20:06:27.442Z,12.18
2023-01-21T20:08:54.254Z,12.90
2023-01-21T20:11:21.969Z,12.35
2023-01-21T20:13:48.860Z,10.18
2023-01-21T20:16:18.938Z,10.38
2023-01-21T20:18:46.392Z,11.50
2023-01-21T20:21:13.192Z,12.02
2023-01-21T20:23:40.281Z,10.15
2023-01-21T20:26:10.971Z,12.57
2023-01-21T20:28:46.695Z,11.13
2023-01-21T20:31:13.571Z,11.32
2023-01-21T20:33:41.524Z,12.98
2023-01-21T20:36:22.163Z,14.23
2023-01-21T20:38:49.306Z,13.68
2023-01-21T20:41:16.497Z,11.10
2023-01-21T20:43:43.432Z,10.52
2023-01-21T20:46:19.752Z,11.60
2023-01-21T20:48:47.003Z,10.82
2023-01-21T20:51:13.880Z,10.77
2023-01-21T20:53:40.702Z,10.10
2023-01-21T20:56:24.362Z,9.73
2023-01-21T20:58:51.364Z,11.05
2023-01-21T21:01:20.926Z,10.43
2023-01-21T21:03:48.434Z,12.00
2023-01-21T21:06:20.071Z,10.32
2023-01-21T21:08:48.302Z,11.05
2023-01-21T21:11:16.880Z,9.55
2023-01-21T21:13:46.415Z,9.90
2023-01-21T21:16:23.113Z,9.77
2023-01-21T21:18:50.559Z,9.05
2023-01-21T21:21:18.518Z,10.38
2023-01-21T21:23:48.198Z,10.02
2023-01-21T21:26:24.108Z,11.02
2023-01-21T21:28:54.708Z,11.10
2023-01-21T21:31:22.461Z,11.32
2023-01-21T21:33:49.310Z,9.23
2023-01-21T21:36:24.043Z,11.40
2023-01-21T21:38:52.269Z,9.18
2023-01-21T21:41:42.330Z,12.45
2023-01-21T21:44:10.157Z,11.63
2023-01-21T21:46:57.155Z,13.07
2023-01-21T21:49:24.142Z,15.05
2023-01-21T21:51:50.983Z,13.50
2023-01-21T21:54:18.570Z,13.10
2023-01-21T21:56:45.654Z,12.00
2023-01-21T21:59:13.331Z,11.98
2023-01-21T22:01:42.749Z,11.05
2023-01-21T22:04:09.852Z,9.55
2023-01-21T22:06:36.677Z,11.52
2023-01-21T22:09:03.581Z,9.48
2023-01-21T22:11:30.696Z,9.77
2023-01-21T22:13:58.236Z,10.95
2023-01-21T22:16:28.598Z,9.98
2023-01-21T22:18:57.160Z,12.57
2023-01-21T22:21:32.797Z,11.68
2023-01-21T22:24:00.835Z,10.15
2023-01-21T22:26:28.575Z,10.00
2023-01-21T22:28:55.674Z,9.55
2023-01-21T22:31:24.957Z,9.65
2023-01-21T22:33:52.394Z,10.35
2023-01-21T22:36:21.521Z,9.75
2023-01-21T22:38:48.820Z,9.35
2023-01-21T22:41:18.432Z,9.38
2023-01-21T22:43:48.352Z,9.75
2023-01-21T22:46:18.197Z,9.35
2023-01-21T22:48:46.191Z,9.48
2023-01-21T22:51:15.663Z,10.27
2023-01-21T22:53:45.919Z,10.20
2023-01-21T22:56:14.662Z,9.30
2023-01-21T22:58:41.830Z,8.73
2023-01-21T23:01:09.603Z,9.02
2023-01-21T23:03:37.612Z,8.18
2023-01-21T23:06:08.551Z,8.00
2023-01-21T23:08:38.459Z,8.35
2023-01-21T23:11:07.187Z,7.70
2023-01-21T23:13:35.018Z,7.20
2023-01-21T23:16:01.893Z,7.93
2023-01-21T23:18:29.698Z,7.45
2023-01-21T23:20:56.844Z,7.75
2023-01-21T23:23:24.819Z,8.10
2023-01-21T23:25:51.735Z,7.55
2023-01-21T23:28:18.456Z,7.90
2023-01-21T23:30:45.368Z,8.00
2023-01-21T23:33:12.195Z,9.05
2023-01-21T23:35:39.221Z,7.70
2023-01-21T23:38:05.943Z,7.85
2023-01-21T23:40:32.769Z,7.70
2023-01-21T23:42:59.522Z,7.80
2023-01-21T23:45:26.685Z,7.95
2023-01-21T23:47:54.767Z,8.65
2023-01-21T23:50:21.609Z,7.82
2023-01-21T23:52:48.327Z,7.60
2023-01-21T23:55:15.034Z,7.53
2023-01-21T23:57:41.812Z,7.50
